Time;durP1;ratioP1;P1;durP2;ratioP2;P2;SDS_P1;SDS_P2;PMS_P1;PMS_P2;Temp;Humidity;BMP_temperature;BMP_pressure;BME280_temperature;BME280_humidity;BME280_pressure;Samples;Min_cycle;Max_cycle;Signal;HPM_P1;HPM_P2
2023/11/10 00:01:02;;;;;;;6.40;0.60;;;7.70;99.90;;;;;;5026357;28;20472;-71
2023/11/10 00:03:30;;;;;;;6.27;0.80;;;7.70;99.90;;;;;;5022016;28;21060;-71
2023/11/10 00:05:59;;;;;;;6.70;1.00;;;7.70;99.90;;;;;;5025242;28;21229;-72
2023/11/10 00:08:28;;;;;;;6.00;0.80;;;7.70;99.90;;;;;;5022420;28;20945;-72
2023/11/10 00:10:58;;;;;;;6.70;0.80;;;7.70;99.90;;;;;;5019711;28;20476;-72
2023/11/10 00:13:26;;;;;;;6.47;1.20;;;7.70;99.90;;;;;;5029751;28;20922;-74
2023/11/10 00:15:54;;;;;;;6.80;1.10;;;7.70;99.90;;;;;;5025382;28;20459;-75
2023/11/10 00:18:22;;;;;;;6.13;1.20;;;7.70;99.90;;;;;;5028316;28;20508;-74
2023/11/10 00:20:50;;;;;;;6.47;1.37;;;7.70;99.90;;;;;;5017875;28;20472;-73
2023/11/10 00:23:19;;;;;;;8.83;1.37;;;7.80;99.90;;;;;;5023155;28;20454;-71
2023/11/10 00:25:48;;;;;;;6.00;1.40;;;7.80;99.90;;;;;;5031063;28;20548;-71
2023/11/10 00:28:17;;;;;;;7.20;2.07;;;7.80;99.90;;;;;;5021594;28;20478;-73
2023/11/10 00:30:45;;;;;;;6.50;1.40;;;7.80;99.90;;;;;;5028635;28;20453;-73
2023/11/10 00:33:13;;;;;;;7.87;1.60;;;7.90;99.90;;;;;;5022259;28;20457;-71
2023/11/10 00:35:41;;;;;;;6.83;2.00;;;7.80;99.90;;;;;;5024623;28;20450;-74
2023/11/10 00:38:09;;;;;;;7.63;1.97;;;7.80;99.90;;;;;;5023833;28;20463;-73
2023/11/10 00:40:37;;;;;;;6.77;1.80;;;7.80;99.90;;;;;;5026112;28;20489;-74
2023/11/10 00:43:06;;;;;;;7.53;2.00;;;7.70;99.90;;;;;;5032870;28;20479;-72
2023/11/10 00:45:35;;;;;;;7.00;1.60;;;7.80;99.90;;;;;;5022496;28;20557;-72
2023/11/10 00:48:03;;;;;;;7.80;2.13;;;7.70;99.90;;;;;;5022145;28;21011;-73
2023/11/10 00:50:31;;;;;;;6.20;1.50;;;7.60;99.90;;;;;;5019367;28;20818;-72
2023/11/10 00:52:59;;;;;;;6.70;1.67;;;7.70;99.90;;;;;;5018826;28;20493;-72
2023/11/10 00:55:27;;;;;;;6.80;1.60;;;7.70;99.90;;;;;;5023374;28;20450;-72
2023/11/10 00:57:55;;;;;;;6.70;1.73;;;7.70;99.90;;;;;;5027254;28;20588;-72
2023/11/10 01:00:26;;;;;;;6.90;1.63;;;7.70;99.90;;;;;;5022997;28;20476;-73
2023/11/10 01:02:54;;;;;;;6.90;1.70;;;7.60;99.90;;;;;;5019767;28;20477;-73
2023/11/10 01:05:22;;;;;;;8.60;2.00;;;7.60;99.90;;;;;;5019971;28;20496;-72
2023/11/10 01:07:51;;;;;;;6.40;1.33;;;7.70;99.90;;;;;;5020041;28;20499;-71
2023/11/10 01:10:19;;;;;;;7.20;1.33;;;7.70;99.90;;;;;;5020225;28;20448;-71
2023/11/10 01:12:47;;;;;;;6.40;1.70;;;7.70;99.90;;;;;;5018485;28;20528;-72
2023/11/10 01:15:15;;;;;;;6.30;1.37;;;7.70;99.90;;;;;;5023873;28;20452;-73
2023/11/10 01:17:45;;;;;;;7.20;1.37;;;7.70;99.90;;;;;;5028045;28;20481;-71
2023/11/10 01:20:14;;;;;;;6.07;1.30;;;7.60;99.90;;;;;;5020381;28;20480;-71
2023/11/10 01:22:42;;;;;;;7.93;1.40;;;7.60;99.90;;;;;;5026876;28;20483;-72
2023/11/10 01:25:12;;;;;;;6.87;1.73;;;7.50;99.90;;;;;;5028648;28;20536;-72
2023/11/10 01:27:41;;;;;;;5.90;1.30;;;7.50;99.90;;;;;;5024492;28;20464;-72
2023/11/10 01:30:12;;;;;;;6.03;1.00;;;7.50;99.90;;;;;;5017600;28;20477;-72
2023/11/10 01:32:41;;;;;;;6.10;1.10;;;7.50;99.90;;;;;;5015241;28;20491;-72
2023/11/10 01:35:11;;;;;;;6.43;1.07;;;7.60;99.90;;;;;;5017233;28;20453;-73
2023/11/10 01:37:41;;;;;;;7.00;1.13;;;7.60;99.90;;;;;;5021575;28;20536;-72
2023/11/10 01:40:10;;;;;;;5.67;0.90;;;7.60;99.90;;;;;;5021049;28;20483;-73
2023/11/10 01:42:39;;;;;;;6.90;1.20;;;7.60;99.90;;;;;;5017752;28;20445;-71
2023/11/10 01:45:08;;;;;;;6.97;1.20;;;7.50;99.90;;;;;;5022847;28;20568;-71
2023/11/10 01:47:37;;;;;;;6.40;1.27;;;7.50;99.90;;;;;;5020658;28;20469;-69
2023/11/10 01:50:07;;;;;;;6.30;1.17;;;7.50;99.90;;;;;;5026033;28;20520;-72
2023/11/10 01:52:36;;;;;;;6.67;1.10;;;7.60;99.90;;;;;;4990461;28;1075124;-71
2023/11/10 01:55:05;;;;;;;7.33;1.00;;;7.70;99.90;;;;;;5019869;28;20211;-73
2023/11/10 01:57:33;;;;;;;6.60;1.03;;;7.70;99.90;;;;;;5016228;28;20907;-72
2023/11/10 02:00:02;;;;;;;6.83;1.20;;;7.70;99.90;;;;;;5022277;28;20481;-72
2023/11/10 02:02:30;;;;;;;6.47;1.40;;;7.70;99.90;;;;;;5017129;28;20949;-71
2023/11/10 02:04:59;;;;;;;5.90;1.10;;;7.70;99.90;;;;;;5017797;28;20468;-72
2023/11/10 02:07:27;;;;;;;6.07;1.00;;;7.70;99.90;;;;;;5017089;28;20470;-71
2023/11/10 02:09:56;;;;;;;6.67;1.30;;;7.60;99.90;;;;;;5021354;28;21036;-70
2023/11/10 02:12:24;;;;;;;6.10;1.20;;;7.70;99.90;;;;;;5015446;28;20464;-73
2023/11/10 02:14:52;;;;;;;7.50;1.70;;;7.80;99.90;;;;;;5017833;28;20534;-72
2023/11/10 02:17:20;;;;;;;6.43;1.10;;;7.80;99.90;;;;;;5028109;28;20480;-72
2023/11/10 02:19:48;;;;;;;5.70;0.87;;;7.90;99.90;;;;;;5023042;28;20493;-72
2023/11/10 02:22:16;;;;;;;6.30;1.13;;;7.80;99.90;;;;;;5023555;28;20476;-72
2023/11/10 02:24:48;;;;;;;7.20;1.10;;;7.90;99.90;;;;;;5017787;28;20477;-73
2023/11/10 02:27:18;;;;;;;5.87;0.77;;;7.90;99.90;;;;;;5019470;28;20473;-72
2023/11/10 02:29:46;;;;;;;5.90;0.80;;;7.90;99.90;;;;;;5023789;28;20448;-71
2023/11/10 02:32:14;;;;;;;6.23;1.40;;;7.80;99.90;;;;;;5022714;28;21253;-72
2023/11/10 02:34:42;;;;;;;5.70;0.83;;;7.80;99.90;;;;;;5026971;28;20804;-71
2023/11/10 02:37:10;;;;;;;5.90;0.80;;;7.80;99.90;;;;;;5017889;28;20524;-71
2023/11/10 02:39:38;;;;;;;5.80;0.80;;;7.80;99.90;;;;;;5022118;28;20559;-72
2023/11/10 02:42:06;;;;;;;6.47;1.00;;;7.80;99.90;;;;;;5018254;28;20469;-71
2023/11/10 02:44:36;;;;;;;5.80;0.73;;;7.90;99.90;;;;;;5020409;28;20979;-70
2023/11/10 02:47:04;;;;;;;5.60;0.80;;;7.90;99.90;;;;;;5014741;28;20504;-72
2023/11/10 02:49:31;;;;;;;5.60;0.60;;;7.80;99.90;;;;;;5014983;28;20993;-72
2023/11/10 02:52:00;;;;;;;6.60;1.07;;;7.90;99.90;;;;;;5022008;28;22026;-72
2023/11/10 02:54:28;;;;;;;5.83;0.80;;;7.90;99.90;;;;;;5013788;28;20469;-72
2023/11/10 02:56:56;;;;;;;6.37;0.70;;;7.80;99.90;;;;;;5022171;28;20984;-71
2023/11/10 02:59:24;;;;;;;5.80;0.77;;;7.80;99.90;;;;;;5024210;28;20531;-72
2023/11/10 03:01:55;;;;;;;5.57;0.70;;;7.80;99.90;;;;;;5015664;28;20653;-69
2023/11/10 03:04:23;;;;;;;6.20;0.90;;;7.80;99.90;;;;;;5018202;28;21056;-72
2023/11/10 03:06:51;;;;;;;6.40;0.90;;;7.80;99.90;;;;;;5018394;28;20565;-73
2023/11/10 03:09:22;;;;;;;5.70;0.70;;;7.80;99.90;;;;;;5018406;28;20546;-73
2023/11/10 03:11:50;;;;;;;6.60;0.90;;;7.90;99.90;;;;;;5016228;28;20465;-71
2023/11/10 03:14:18;;;;;;;5.93;0.70;;;7.90;99.90;;;;;;5027413;28;21189;-70
2023/11/10 03:16:46;;;;;;;5.80;0.90;;;7.80;99.90;;;;;;5016425;28;20470;-73
2023/11/10 03:19:16;;;;;;;6.57;0.90;;;7.80;99.90;;;;;;5019340;28;20912;-70
2023/11/10 03:21:44;;;;;;;6.17;0.60;;;7.80;99.90;;;;;;5018339;28;20496;-71
2023/11/10 03:24:12;;;;;;;6.00;0.80;;;7.80;99.90;;;;;;5022549;28;20478;-71
2023/11/10 03:26:40;;;;;;;6.07;0.73;;;7.90;99.90;;;;;;5014069;28;20831;-71
2023/11/10 03:29:08;;;;;;;6.27;1.10;;;7.80;99.90;;;;;;5015539;28;20457;-72
2023/11/10 03:31:38;;;;;;;6.17;1.10;;;7.80;99.90;;;;;;5013320;28;20461;-72
2023/11/10 03:34:07;;;;;;;5.63;0.60;;;7.70;99.90;;;;;;5017068;28;20501;-72
2023/11/10 03:36:36;;;;;;;5.90;0.80;;;7.80;99.90;;;;;;5020885;28;20473;-71
2023/11/10 03:39:05;;;;;;;5.77;0.83;;;7.70;99.90;;;;;;5027064;28;21038;-72
2023/11/10 03:41:33;;;;;;;6.80;0.87;;;7.70;99.90;;;;;;5017999;28;20484;-71
2023/11/10 03:44:01;;;;;;;5.60;0.70;;;7.80;99.90;;;;;;5026223;28;20730;-71
2023/11/10 03:46:29;;;;;;;6.50;0.93;;;7.80;99.90;;;;;;5025427;28;20824;-72
2023/11/10 03:48:57;;;;;;;6.70;0.83;;;7.80;99.90;;;;;;5020833;28;20846;-70
2023/11/10 03:51:25;;;;;;;8.67;0.70;;;7.80;99.90;;;;;;5022287;28;20466;-71
2023/11/10 03:53:54;;;;;;;5.77;0.60;;;7.80;99.90;;;;;;5019604;28;20552;-71
2023/11/10 03:56:22;;;;;;;5.77;0.90;;;7.80;99.90;;;;;;5019703;28;20475;-72
2023/11/10 03:58:50;;;;;;;5.60;0.60;;;7.80;99.90;;;;;;5020076;28;20480;-72
2023/11/10 04:01:20;;;;;;;6.00;0.60;;;7.90;99.90;;;;;;5018198;28;20481;-72
2023/11/10 04:03:48;;;;;;;5.57;0.60;;;7.80;99.90;;;;;;5023726;28;20961;-71
2023/11/10 04:06:16;;;;;;;7.00;0.80;;;7.80;99.90;;;;;;5013979;28;20528;-71
2023/11/10 04:08:45;;;;;;;6.33;0.80;;;7.80;99.90;;;;;;5021303;28;20448;-70
2023/11/10 04:11:15;;;;;;;5.60;0.57;;;7.90;99.90;;;;;;5023073;28;20602;-71
2023/11/10 04:13:44;;;;;;;6.00;0.40;;;7.80;99.90;;;;;;5022221;28;20470;-71
2023/11/10 04:16:16;;;;;;;5.80;0.50;;;7.80;99.90;;;;;;5015305;28;20920;-71
2023/11/10 04:18:45;;;;;;;6.83;0.80;;;7.90;99.90;;;;;;5018676;28;20480;-71
2023/11/10 04:21:14;;;;;;;5.60;0.60;;;7.90;99.90;;;;;;5026079;28;20529;-72
2023/11/10 04:23:42;;;;;;;6.90;0.70;;;8.00;99.90;;;;;;5015934;28;20473;-72
2023/11/10 04:26:11;;;;;;;5.50;0.50;;;8.00;99.90;;;;;;5018643;28;20506;-71
2023/11/10 04:28:40;;;;;;;5.80;0.60;;;7.90;99.90;;;;;;5020511;28;20481;-72
2023/11/10 04:31:09;;;;;;;5.43;0.50;;;7.90;99.90;;;;;;5018709;28;21042;-71
2023/11/10 04:33:38;;;;;;;5.50;0.50;;;7.90;99.90;;;;;;5016307;28;20517;-74
2023/11/10 04:36:07;;;;;;;5.73;0.60;;;7.90;99.90;;;;;;5016887;28;20557;-73
2023/11/10 04:38:35;;;;;;;6.10;0.60;;;8.00;99.90;;;;;;5018713;28;20840;-71
2023/11/10 04:41:04;;;;;;;5.70;0.60;;;7.90;99.90;;;;;;5027397;28;20482;-72
2023/11/10 04:43:32;;;;;;;5.60;0.60;;;7.90;99.90;;;;;;5020366;28;20491;-72
2023/11/10 04:46:03;;;;;;;6.20;0.80;;;7.80;99.90;;;;;;5016512;28;20453;-73
2023/11/10 04:48:32;;;;;;;6.17;0.70;;;7.90;99.90;;;;;;5026587;28;20504;-72
2023/11/10 04:51:03;;;;;;;5.80;0.60;;;7.90;99.90;;;;;;5022146;28;20468;-71
2023/11/10 04:53:31;;;;;;;6.30;0.70;;;8.00;99.90;;;;;;5014370;28;20466;-72
2023/11/10 04:56:00;;;;;;;5.70;0.63;;;8.00;99.90;;;;;;5017522;28;20904;-71
2023/11/10 04:58:29;;;;;;;5.47;0.43;;;8.00;99.90;;;;;;5022603;28;20460;-71
2023/11/10 05:00:57;;;;;;;5.80;0.60;;;8.00;99.90;;;;;;5025792;28;20514;-73
2023/11/10 05:03:26;;;;;;;5.97;0.67;;;8.00;99.90;;;;;;5015689;28;20451;-71
2023/11/10 05:05:55;;;;;;;5.90;0.60;;;8.10;99.90;;;;;;5018522;28;20473;-71
2023/11/10 05:08:22;;;;;;;7.00;0.53;;;8.20;99.90;;;;;;5024767;28;20453;-74
2023/11/10 05:10:50;;;;;;;6.00;0.50;;;8.10;99.90;;;;;;5027603;28;20445;-71
2023/11/10 05:13:18;;;;;;;6.00;0.67;;;8.00;99.90;;;;;;5021155;28;20480;-73
2023/11/10 05:15:46;;;;;;;6.20;0.60;;;8.00;99.90;;;;;;5014670;28;20929;-72
2023/11/10 05:18:14;;;;;;;5.63;0.60;;;8.10;99.90;;;;;;5025888;28;20448;-72
2023/11/10 05:21:04;;;;;;;6.00;0.67;;;8.10;99.90;;;;;;5027699;28;20579;-72
2023/11/10 05:23:32;;;;;;;5.70;0.67;;;8.10;99.90;;;;;;5030163;28;20543;-72
2023/11/10 05:26:00;;;;;;;6.20;0.93;;;8.00;99.90;;;;;;5022255;28;20457;-71
2023/11/10 05:28:28;;;;;;;5.50;0.50;;;8.00;99.90;;;;;;5029725;28;20448;-73
2023/11/10 05:30:56;;;;;;;5.60;0.50;;;8.00;99.90;;;;;;5021936;28;20442;-74
2023/11/10 05:33:24;;;;;;;5.60;0.50;;;8.10;99.90;;;;;;5021518;28;20951;-74
2023/11/10 05:35:52;;;;;;;6.33;0.80;;;8.10;99.90;;;;;;5022852;28;20461;-74
2023/11/10 05:38:21;;;;;;;5.80;0.40;;;8.00;99.90;;;;;;5019399;28;20468;-72
2023/11/10 05:40:50;;;;;;;5.90;0.47;;;8.00;99.90;;;;;;5023114;28;20536;-71
2023/11/10 05:43:17;;;;;;;5.53;0.43;;;7.90;99.90;;;;;;5022676;28;20500;-74
2023/11/10 05:45:46;;;;;;;5.57;0.60;;;7.90;99.90;;;;;;5023022;28;20453;-68
2023/11/10 05:48:14;;;;;;;5.77;0.50;;;7.80;99.90;;;;;;5018258;28;20453;-73
2023/11/10 05:50:42;;;;;;;5.47;0.40;;;7.80;99.90;;;;;;5022098;28;20457;-70
2023/11/10 05:53:10;;;;;;;5.70;0.80;;;7.80;99.90;;;;;;5017908;28;20456;-70
2023/11/10 05:55:39;;;;;;;5.70;0.43;;;7.70;99.90;;;;;;5019711;28;20524;-71
2023/11/10 05:58:07;;;;;;;5.63;0.50;;;7.70;99.90;;;;;;5021198;28;21032;-70
2023/11/10 06:00:35;;;;;;;6.40;0.70;;;7.70;99.90;;;;;;5023411;28;20449;-70
2023/11/10 06:03:03;;;;;;;6.77;0.50;;;7.70;99.90;;;;;;5023910;28;20481;-69
2023/11/10 06:05:31;;;;;;;7.03;0.60;;;7.70;99.90;;;;;;5014333;28;20859;-72
2023/11/10 06:07:59;;;;;;;5.70;0.40;;;7.70;99.90;;;;;;5020594;28;20538;-70
2023/11/10 06:10:27;;;;;;;5.70;0.50;;;7.70;99.90;;;;;;5013033;28;20456;-69
2023/11/10 06:12:57;;;;;;;7.10;0.60;;;7.70;99.90;;;;;;5017378;28;20448;-72
2023/11/10 06:15:25;;;;;;;5.70;0.50;;;7.60;99.90;;;;;;5021583;28;20450;-73
2023/11/10 06:17:53;;;;;;;5.90;0.50;;;7.70;99.90;;;;;;5014821;28;20481;-72
2023/11/10 06:20:21;;;;;;;5.50;0.43;;;7.50;99.90;;;;;;5014695;28;20449;-73
2023/11/10 06:22:49;;;;;;;5.80;0.50;;;7.50;99.90;;;;;;5017687;28;20480;-74
2023/11/10 06:25:17;;;;;;;5.70;0.50;;;7.60;99.90;;;;;;5022348;28;20449;-70
2023/11/10 06:27:45;;;;;;;5.63;0.40;;;7.60;99.90;;;;;;5022029;28;20462;-70
2023/11/10 06:30:16;;;;;;;5.43;0.40;;;7.60;99.90;;;;;;5021445;28;20453;-70
2023/11/10 06:32:44;;;;;;;5.87;0.40;;;7.60;99.90;;;;;;5025875;28;20466;-71
2023/11/10 06:35:12;;;;;;;5.70;0.50;;;7.60;99.90;;;;;;5026819;28;20453;-69
2023/11/10 06:37:40;;;;;;;5.53;0.53;;;7.70;99.90;;;;;;5026951;28;20554;-69
2023/11/10 06:40:09;;;;;;;5.70;0.40;;;7.70;99.90;;;;;;5027197;28;20861;-71
2023/11/10 06:42:37;;;;;;;6.00;0.40;;;7.70;99.90;;;;;;5026738;28;20579;-72
2023/11/10 06:45:06;;;;;;;6.00;0.50;;;7.70;99.90;;;;;;5019575;28;20524;-72
2023/11/10 06:47:36;;;;;;;5.50;0.43;;;7.70;99.90;;;;;;5026992;28;20590;-70
2023/11/10 06:50:05;;;;;;;6.23;0.50;;;7.70;99.90;;;;;;5030154;28;20453;-71
2023/11/10 06:52:32;;;;;;;6.10;0.80;;;7.70;99.90;;;;;;5010179;28;20456;-70
2023/11/10 06:55:01;;;;;;;6.00;0.60;;;7.70;99.90;;;;;;5027636;28;20503;-69
2023/11/10 06:57:29;;;;;;;5.50;0.50;;;7.70;99.90;;;;;;5025418;28;20306;-69
2023/11/10 06:59:57;;;;;;;5.70;0.57;;;7.70;99.90;;;;;;5027198;28;20460;-70
2023/11/10 07:02:26;;;;;;;6.10;0.53;;;7.80;99.90;;;;;;5015939;28;20484;-70
2023/11/10 07:04:55;;;;;;;5.50;0.50;;;7.80;99.90;;;;;;5018322;28;20737;-72
2023/11/10 07:07:23;;;;;;;5.87;0.50;;;7.80;99.90;;;;;;5029286;28;20496;-70
2023/11/10 07:09:52;;;;;;;5.80;0.50;;;7.80;99.90;;;;;;5021062;28;20449;-70
2023/11/10 07:12:20;;;;;;;5.47;0.40;;;7.80;99.90;;;;;;5028930;28;20449;-71
2023/11/10 07:14:48;;;;;;;5.90;0.60;;;7.80;99.90;;;;;;5027551;28;20464;-70
2023/11/10 07:17:17;;;;;;;5.70;0.50;;;7.80;99.90;;;;;;5028997;28;20827;-70
2023/11/10 07:19:46;;;;;;;6.03;1.00;;;7.80;99.90;;;;;;5030666;28;20452;-71
2023/11/10 07:22:15;;;;;;;5.43;0.43;;;7.60;99.90;;;;;;5028968;28;20584;-70
2023/11/10 07:24:43;;;;;;;6.27;0.60;;;7.60;99.90;;;;;;5027998;28;20452;-72
2023/11/10 07:27:11;;;;;;;5.60;0.60;;;7.50;99.90;;;;;;5028735;28;20564;-71
2023/11/10 07:29:39;;;;;;;6.50;0.67;;;7.50;99.90;;;;;;5022388;28;20577;-70
2023/11/10 07:32:07;;;;;;;5.53;0.50;;;7.40;99.90;;;;;;5028009;28;20944;-69
2023/11/10 07:34:35;;;;;;;6.97;0.80;;;7.40;99.90;;;;;;5028127;28;20445;-70
2023/11/10 07:37:03;;;;;;;7.43;0.90;;;7.40;99.90;;;;;;5028472;28;20561;-70
2023/11/10 07:39:33;;;;;;;6.17;0.80;;;7.50;99.90;;;;;;5028415;28;20441;-69
2023/11/10 07:42:01;;;;;;;5.90;0.80;;;7.60;99.90;;;;;;5028439;28;20448;-69
2023/11/10 07:44:29;;;;;;;6.80;0.70;;;7.90;99.90;;;;;;5028179;28;20453;-71
2023/11/10 07:46:56;;;;;;;6.00;0.60;;;8.10;99.90;;;;;;5027347;28;21022;-71
2023/11/10 07:49:25;;;;;;;6.97;0.80;;;8.30;99.90;;;;;;5028372;28;20973;-69
2023/11/10 07:51:54;;;;;;;6.57;0.70;;;8.40;99.90;;;;;;5028263;28;20453;-69
2023/11/10 07:54:23;;;;;;;5.80;0.60;;;8.50;99.90;;;;;;5028207;28;20457;-69
2023/11/10 07:56:52;;;;;;;7.93;0.60;;;8.70;99.90;;;;;;5028388;28;20552;-68
2023/11/10 07:59:21;;;;;;;6.20;0.63;;;8.80;99.90;;;;;;5028679;28;20873;-69
2023/11/10 08:01:49;;;;;;;5.87;0.60;;;8.80;99.90;;;;;;5026570;28;20450;-70
2023/11/10 08:04:17;;;;;;;6.03;0.80;;;8.70;99.90;;;;;;5028083;28;20489;-69
2023/11/10 08:06:46;;;;;;;5.50;0.40;;;8.70;99.90;;;;;;5028263;28;20476;-70
2023/11/10 08:09:15;;;;;;;6.70;1.07;;;8.60;99.90;;;;;;5028535;28;20823;-70
2023/11/10 08:11:43;;;;;;;5.70;0.47;;;8.60;99.90;;;;;;5031618;28;20499;-68
2023/11/10 08:14:23;;;;;;;5.80;0.50;;;8.50;99.90;;;;;;5032062;28;20439;-69
2023/11/10 08:16:51;;;;;;;5.77;0.60;;;8.40;99.90;;;;;;5031747;28;20467;-69
2023/11/10 08:19:19;;;;;;;6.50;0.60;;;8.40;99.90;;;;;;5030689;28;20456;-70
2023/11/10 08:21:48;;;;;;;5.63;0.57;;;8.30;99.90;;;;;;5033388;28;20528;-69
2023/11/10 08:24:16;;;;;;;5.90;0.67;;;8.40;99.90;;;;;;5032031;28;20487;-69
2023/11/10 08:26:44;;;;;;;5.60;0.60;;;8.50;99.90;;;;;;5031798;28;20535;-69
2023/11/10 08:29:13;;;;;;;6.77;0.67;;;8.50;99.90;;;;;;5032008;28;20851;-69
2023/11/10 08:31:42;;;;;;;5.70;0.60;;;8.60;99.90;;;;;;5031829;28;20553;-69
2023/11/10 08:34:10;;;;;;;6.30;0.77;;;8.70;99.90;;;;;;5031376;28;20999;-69
2023/11/10 08:36:40;;;;;;;6.30;0.73;;;8.90;99.90;;;;;;5030065;28;20501;-69
2023/11/10 08:39:08;;;;;;;5.67;0.60;;;8.90;99.90;;;;;;5031781;28;20444;-68
2023/11/10 08:41:36;;;;;;;6.33;0.70;;;8.90;99.90;;;;;;5027837;28;20548;-70
2023/11/10 08:44:06;;;;;;;7.27;1.10;;;8.90;99.90;;;;;;5031267;28;20485;-69
2023/11/10 08:46:34;;;;;;;6.13;0.70;;;8.90;99.90;;;;;;5031832;28;20470;-70
2023/11/10 08:49:04;;;;;;;6.40;0.67;;;8.90;99.90;;;;;;5031759;28;20441;-69
2023/11/10 08:51:32;;;;;;;6.67;0.80;;;9.00;99.90;;;;;;5031868;28;20844;-68
2023/11/10 08:54:00;;;;;;;6.60;0.80;;;9.10;99.90;;;;;;5031287;28;20435;-69
2023/11/10 08:56:29;;;;;;;6.00;0.70;;;9.10;99.90;;;;;;5025425;28;20839;-69
2023/11/10 08:58:57;;;;;;;5.90;0.80;;;9.10;99.90;;;;;;5031824;28;20538;-69
2023/11/10 09:01:25;;;;;;;5.97;0.53;;;9.20;99.90;;;;;;5032060;28;20467;-71
2023/11/10 09:03:53;;;;;;;6.00;0.60;;;9.30;99.90;;;;;;5031148;28;20514;-69
2023/11/10 09:06:22;;;;;;;6.23;0.70;;;9.50;99.90;;;;;;5031124;28;20525;-71
2023/11/10 09:08:51;;;;;;;6.60;0.67;;;9.60;99.90;;;;;;5031352;28;20478;-68
2023/11/10 09:11:19;;;;;;;6.20;0.70;;;10.00;99.90;;;;;;5026912;28;20464;-69
2023/11/10 09:13:47;;;;;;;7.37;1.00;;;10.00;99.90;;;;;;5031301;28;20472;-69
2023/11/10 09:16:19;;;;;;;5.90;0.70;;;10.30;99.90;;;;;;5031000;28;20487;-69
2023/11/10 09:18:47;;;;;;;5.70;0.60;;;10.70;99.90;;;;;;5031109;28;20450;-70
2023/11/10 09:21:16;;;;;;;6.03;0.50;;;10.80;99.90;;;;;;5030847;28;20466;-70
2023/11/10 09:23:45;;;;;;;5.50;0.53;;;10.80;99.90;;;;;;5030561;28;21138;-70
2023/11/10 09:26:14;;;;;;;5.80;0.80;;;10.80;99.90;;;;;;5029406;28;20471;-69
2023/11/10 09:28:43;;;;;;;5.83;0.60;;;10.80;99.90;;;;;;5025920;28;20483;-68
2023/11/10 09:31:12;;;;;;;5.53;0.40;;;11.00;99.90;;;;;;5030463;28;20956;-69
2023/11/10 09:33:40;;;;;;;6.70;0.77;;;11.30;99.90;;;;;;5030813;28;20764;-69
2023/11/10 09:36:08;;;;;;;5.80;0.57;;;11.50;99.90;;;;;;5030304;28;21019;-68
2023/11/10 09:38:36;;;;;;;5.70;0.60;;;11.50;99.90;;;;;;5031087;28;20445;-69
2023/11/10 09:41:08;;;;;;;5.40;0.37;;;11.50;99.90;;;;;;5030652;28;20514;-70
2023/11/10 09:43:36;;;;;;;5.50;0.60;;;11.50;99.90;;;;;;5017925;28;20876;-70
2023/11/10 09:46:05;;;;;;;6.53;0.50;;;11.80;99.90;;;;;;5028246;28;20458;-70
2023/11/10 09:48:35;;;;;;;5.70;0.43;;;12.40;99.90;;;;;;5028652;28;20979;-70
2023/11/10 09:51:05;;;;;;;5.60;0.40;;;12.50;99.90;;;;;;5028827;28;20447;-71
2023/11/10 09:53:34;;;;;;;5.70;0.50;;;12.30;99.90;;;;;;5028490;28;20451;-71
2023/11/10 09:56:02;;;;;;;6.37;0.47;;;12.30;99.90;;;;;;5028611;28;20877;-69
2023/11/10 09:58:32;;;;;;;5.67;0.50;;;12.30;99.90;;;;;;5028624;28;20454;-69
2023/11/10 10:01:00;;;;;;;5.90;0.60;;;12.20;99.90;;;;;;5020566;28;20515;-69
2023/11/10 10:03:29;;;;;;;5.60;0.60;;;12.10;99.90;;;;;;5028237;28;20595;-69
2023/11/10 10:06:00;;;;;;;5.43;0.50;;;12.00;99.90;;;;;;5028373;28;20960;-72
2023/11/10 10:08:28;;;;;;;7.50;0.50;;;12.10;99.90;;;;;;5023961;28;20451;-69
2023/11/10 10:10:56;;;;;;;6.27;0.50;;;12.20;99.90;;;;;;5008846;28;21028;-69
2023/11/10 10:13:27;;;;;;;5.77;0.40;;;12.20;99.90;;;;;;5008061;28;20837;-69
2023/11/10 10:16:06;;;;;;;5.60;0.40;;;11.90;99.90;;;;;;5016236;28;20465;-67
2023/11/10 10:18:34;;;;;;;6.83;0.60;;;11.50;99.90;;;;;;5029042;28;20448;-70
2023/11/10 10:21:02;;;;;;;6.00;0.50;;;11.40;99.90;;;;;;5020832;28;20458;-70
2023/11/10 10:23:31;;;;;;;6.60;0.60;;;11.90;99.90;;;;;;5028366;28;20481;-70
2023/11/10 10:26:00;;;;;;;5.50;0.40;;;12.40;99.90;;;;;;5029271;28;20520;-71
2023/11/10 10:28:28;;;;;;;5.30;0.30;;;13.10;99.90;;;;;;5029374;28;20449;-71
2023/11/10 10:30:58;;;;;;;5.80;0.43;;;13.80;99.90;;;;;;5029009;28;20934;-70
2023/11/10 10:33:26;;;;;;;5.30;0.40;;;14.00;99.90;;;;;;5027938;28;20893;-71
2023/11/10 10:35:55;;;;;;;6.40;0.50;;;13.80;99.90;;;;;;5028796;28;20513;-69
2023/11/10 10:38:25;;;;;;;5.60;0.40;;;13.90;99.90;;;;;;5029563;28;20456;-69
2023/11/10 10:40:56;;;;;;;5.53;0.60;;;13.90;99.90;;;;;;5029357;28;20456;-68
2023/11/10 10:43:24;;;;;;;5.50;0.40;;;13.90;99.90;;;;;;5028784;28;20463;-68
2023/11/10 10:45:55;;;;;;;5.90;0.47;;;13.60;99.90;;;;;;5028768;28;20970;-69
2023/11/10 10:48:27;;;;;;;5.63;0.50;;;13.10;99.90;;;;;;5029083;28;20447;-68
2023/11/10 10:50:56;;;;;;;7.60;0.60;;;12.60;99.90;;;;;;5027961;28;20487;-67
2023/11/10 10:53:25;;;;;;;6.00;0.60;;;11.80;99.90;;;;;;5022378;28;20465;-70
2023/11/10 10:55:53;;;;;;;6.00;0.73;;;11.20;99.90;;;;;;5029072;28;20472;-68
2023/11/10 10:58:22;;;;;;;5.60;0.70;;;10.90;99.90;;;;;;5028031;28;20445;-69
2023/11/10 11:00:50;;;;;;;5.90;0.60;;;10.90;99.90;;;;;;5028666;28;20461;-69
2023/11/10 11:03:35;;;;;;;6.67;0.97;;;11.00;99.90;;;;;;5028376;28;20479;-68
2023/11/10 11:06:20;;;;;;;6.53;1.03;;;11.20;99.90;;;;;;5021294;28;20453;-70
2023/11/10 11:09:02;;;;;;;5.77;0.63;;;11.30;99.90;;;;;;5029239;28;20464;-70
2023/11/10 11:11:57;;;;;;;5.60;0.60;;;11.50;99.90;;;;;;5022198;28;20975;-71
2023/11/10 11:14:44;;;;;;;5.80;0.50;;;11.50;99.90;;;;;;5027534;28;20518;-71
2023/11/10 11:17:41;;;;;;;5.60;0.50;;;11.50;99.90;;;;;;5028232;28;20449;-70
2023/11/10 11:20:14;;;;;;;5.50;0.40;;;11.40;99.90;;;;;;5023082;28;20458;-69
2023/11/10 11:22:43;;;;;;;5.43;0.57;;;11.60;99.90;;;;;;5025444;28;21016;-68
2023/11/10 11:25:13;;;;;;;5.83;0.53;;;11.70;99.90;;;;;;5027727;28;20900;-71
2023/11/10 11:27:42;;;;;;;5.53;0.53;;;11.50;99.90;;;;;;5028161;28;21039;-70
2023/11/10 11:30:12;;;;;;;6.60;0.57;;;11.30;99.90;;;;;;5027709;28;20525;-70
2023/11/10 11:32:41;;;;;;;5.40;0.40;;;10.90;99.90;;;;;;5027323;28;20946;-70
2023/11/10 11:35:14;;;;;;;6.57;0.60;;;10.60;99.90;;;;;;5026346;28;20502;-71
2023/11/10 11:37:43;;;;;;;5.50;0.50;;;10.60;99.90;;;;;;5026791;28;20470;-70
2023/11/10 11:40:12;;;;;;;5.60;0.70;;;10.80;99.90;;;;;;5026725;28;20495;-70
2023/11/10 11:42:41;;;;;;;5.43;0.50;;;10.90;99.90;;;;;;5022992;28;20541;-70
2023/11/10 11:45:13;;;;;;;5.37;0.40;;;10.90;99.90;;;;;;5029427;28;20486;-71
2023/11/10 11:47:42;;;;;;;5.60;0.70;;;10.90;99.90;;;;;;5021770;28;20467;-70
2023/11/10 11:50:12;;;;;;;5.90;0.83;;;10.70;99.90;;;;;;5030889;28;20990;-71
2023/11/10 11:52:41;;;;;;;6.70;0.60;;;10.60;99.90;;;;;;5026126;28;20875;-70
2023/11/10 11:55:09;;;;;;;5.70;0.53;;;10.50;99.90;;;;;;5024970;28;20465;-71
2023/11/10 11:57:38;;;;;;;5.60;0.60;;;10.50;99.90;;;;;;5032964;28;20559;-71
2023/11/10 12:00:08;;;;;;;6.10;0.60;;;10.40;99.90;;;;;;5028643;28;20451;-68
2023/11/10 12:02:39;;;;;;;6.47;0.80;;;10.40;99.90;;;;;;5027491;28;21174;-68
2023/11/10 12:05:12;;;;;;;5.50;0.50;;;10.40;99.90;;;;;;5027948;28;20570;-68
2023/11/10 12:07:42;;;;;;;6.30;0.50;;;10.30;99.90;;;;;;5027437;28;20462;-68
2023/11/10 12:10:12;;;;;;;5.50;0.50;;;10.30;99.90;;;;;;5027590;28;20505;-69
2023/11/10 12:12:40;;;;;;;5.80;0.50;;;10.30;99.90;;;;;;5025685;28;20546;-70
2023/11/10 12:15:10;;;;;;;6.37;0.60;;;10.50;99.90;;;;;;5026967;28;20443;-71
2023/11/10 12:17:38;;;;;;;5.50;0.50;;;10.60;99.90;;;;;;5027649;28;20971;-69
2023/11/10 12:20:09;;;;;;;5.37;0.50;;;10.70;99.90;;;;;;5026638;28;20458;-69
2023/11/10 12:22:37;;;;;;;6.20;0.60;;;10.70;99.90;;;;;;5026209;28;20471;-69
2023/11/10 12:25:10;;;;;;;5.60;0.60;;;10.50;99.90;;;;;;5026161;28;20470;-68
2023/11/10 12:27:38;;;;;;;6.03;0.60;;;10.30;99.90;;;;;;5024706;28;20509;-72
2023/11/10 12:30:08;;;;;;;6.00;0.67;;;10.10;99.90;;;;;;5026469;28;20444;-69
2023/11/10 12:32:39;;;;;;;5.77;0.83;;;10.00;99.90;;;;;;5027409;28;20460;-68
2023/11/10 12:35:09;;;;;;;5.97;0.50;;;10.00;99.90;;;;;;5025956;28;20435;-70
2023/11/10 12:37:37;;;;;;;7.40;0.73;;;10.10;99.90;;;;;;5026746;28;20464;-68
2023/11/10 12:40:11;;;;;;;6.30;0.60;;;10.30;99.90;;;;;;5027166;28;20449;-70
2023/11/10 12:42:39;;;;;;;6.37;0.57;;;10.50;99.90;;;;;;5026907;28;20493;-70
2023/11/10 12:45:09;;;;;;;5.77;0.60;;;10.50;99.90;;;;;;5025766;28;20533;-70
2023/11/10 12:47:38;;;;;;;6.27;0.60;;;10.50;99.90;;;;;;5026101;28;20529;-69
2023/11/10 12:50:11;;;;;;;5.40;0.50;;;10.40;99.90;;;;;;5028796;28;20452;-69
2023/11/10 12:52:39;;;;;;;7.03;0.60;;;10.40;99.90;;;;;;5029851;28;20607;-70
2023/11/10 12:55:08;;;;;;;5.37;0.50;;;10.40;99.90;;;;;;5030092;28;20523;-70
2023/11/10 12:57:38;;;;;;;6.73;0.70;;;10.30;99.90;;;;;;5029529;28;20485;-69
2023/11/10 13:00:12;;;;;;;6.67;0.57;;;10.40;99.90;;;;;;5029160;28;20452;-69
2023/11/10 13:02:40;;;;;;;6.23;0.70;;;10.50;99.90;;;;;;5031118;28;20465;-70